ADDS METAR Data INFO
IDs: Format: Raw Decoded Include TAF

Data at: 0626 UTC 15 Dec 2017

KOWB 150556Z AUTO 33007KT 10SM OVC037 00/M05 A3010 RMK AO2 SLPNO T00001050 10006 21011 400171011 58003 TSNO
KOWB 150456Z AUTO 33006KT 10SM OVC037 00/M05 A3012 RMK AO2 SLPNO T00001050
KOWB 150356Z 29003KT 10SM OVC037 00/M05 A3012 RMK AO2 SLPNO T00001050
KOWB 150256Z 32003KT 10SM OVC037 00/M06 A3011 RMK AO2 SLPNO T00001056 50005
KOWB 150156Z 30005KT 10SM OVC035 00/M05 A3012 RMK AO2 SLPNO T00001050
KOWB 150056Z 31005KT 10SM BKN037 M01/M06 A3010 RMK AO2 SLPNO T10111056
KOWB 142356Z 30004KT 10SM OVC033 01/M06 A3009 RMK AO2 SLPNO 6//// T00061056 10011 20006 50013
KOWB 142156Z 29004KT 10SM OVC033 01/M06 A3008 RMK AO2 SLPNO T00111061
KOWB 142056Z VRB05KT 10SM OVC033 01/M06 A3005 RMK AO2 SLPNO 6//// T00111061
KOWB 141958Z COR 32006KT 10SM OVC031 A3006
KOWB 141956Z AUTO 31008KT 10SM OVC031 01/M06 A3006 RMK AO2 SLPNO T00111061
KOWB 141858Z COR 35006KT 10SM BKN031 A3006
KOWB 141856Z AUTO 34005KT 10SM OVC031 01/M07 A3005 RMK AO2 SLPNO T00111067
KOWB 141758Z 35006KT 10SM BKN030 A3006
KOWB 141756Z AUTO VRB03KT 10SM 01/M06 A3006 RMK AO2 SLPNO 6//// T00111061
KOWB 141656Z 02009KT 10SM BKN032 A3006
KOWB 141556Z 36010KT 10SM BKN035 A3006
KOWB 141456Z 36006KT 10SM CLR 00/M06 A3004 RMK AO2 SLP185 T00001061 51025
KOWB 141356Z 36006KT 10SM CLR M01/M06 A3002 RMK AO2 SLP179 T10111061
KOWB 141256Z 34005KT 10SM SCT035 M02/M06 A2999 RMK AO2 SLP171 T10171061
KOWB 141156Z 01013G16KT 10SM OVC035 00/M06 A2996 RMK AO2 SLP159 T00001061 10039 20000 53022
KOWB 141056Z AUTO 01014G18KT 10SM OVC031 02/M04 A2992 RMK AO2 SLP146 T00171044
KOWB 140956Z AUTO 34012G16KT 10SM OVC031 02/M04 A2990 RMK AO2 SLP139 T00221039
KOWB 140909Z AUTO 35011KT 10SM OVC031 03/M04 A2990 RMK AO2
KOWB 140856Z AUTO 33011G18KT 10SM OVC029 03/M04 A2989 RMK AO2 SLP138 T00281039 53033
KOWB 140756Z AUTO 34010G17KT 10SM OVC029 03/M03 A2987 RMK AO2 SLP126 T00331028
KOWB 140704Z AUTO 33016G21KT 10SM OVC029 04/M02 A2982 RMK AO2
KOWB 140656Z AUTO 32016KT 10SM OVC031 04/M02 A2982 RMK AO2 SLP110 T00391022
KOWB 140556Z AUTO 32013KT 10SM BKN035 03/M02 A2980 RMK AO2 SLP103 T00331017 10089 20033 401001067 53029
KOWB 140456Z AUTO 33010KT 10SM CLR 04/00 A2977 RMK AO2 SLP094 T00440000
KOWB 140356Z 31008KT 10SM CLR 04/M02 A2973 RMK AO2 SLP082 T00441017
KOWB 140256Z 28011KT 10SM CLR 07/M02 A2971 RMK AO2 SLP075 T00721022 53028
KOWB 140156Z 26012KT 10SM FEW065 08/M03 A2968 RMK AO2 SLP063 T00781028
KOWB 140056Z 23017KT 10SM OVC070 08/M03 A2964 RMK AO2 SLP049 T00831028
KOWB 132356Z 22010G16KT 10SM BKN070 BKN080 08/M03 A2963 RMK AO2 SLP046 T00781028 10100 20067 51015
KOWB 132256Z 24014KT 10SM BKN065 08/M03 A2962 RMK AO2 PK WND 25026/2201 SLP044 T00781033
KOWB 132156Z 24020G27KT 10SM CLR 09/M04 A2960 RMK AO2 PK WND 25027/2153 SLP036 T00941039
KOWB 132056Z 23021G25KT 10SM CLR 10/M04 A2958 RMK AO2 PK WND 23026/2038 SLP030 T01001044 56030
KOWB 131956Z 23020G31KT 10SM CLR 09/M05 A2962 RMK AO2 PK WND 22032/1946 SLP044 T00891050
KOWB 131856Z 20021KT 10SM SCT110 08/M06 A2961 RMK AO2 PK WND 21033/1829 PRESFR SLP039 T00781061